Deering, AK

01:58 AKDT le 25 juillet 2016 (GMT -0800)
Deering (New) | | Change Station

Alt. 16 ft 66.07 °N, 162.77 °W | Updated 5 minutes ago

Clear
Ciel dégagé
48 ° F
Paraît 48 ° F
N
8
Vent Variable Vent de SSO

Aujourd'hui
Haut(e) -- | Bas -- ° F
--% Risque de précip.
Hier
Haut(e) -- | Bas -- ° F
Precip. -- pouce
Pression 29.79 pouce
Visibilité 10.0 Miles terrestres
Nuages Ciel dégagé
Point de rosée 45 ° F
Humidité 89%
Précipitations 0.00 pouce
Profondeur de la couche neigeuse Non disponible.
5:11 AM 0:40 AM
Lune gibbeuse décroissante, 67% visible
METAR PADE 250953Z AUTO 20007KT 10SM CLR 09/07 A2979 RMK AO2 SLP086 T00890072 TSNO
Pression 29.79 pouce
Visibilité 10.0 Miles terrestres
Nuages Ciel dégagé
Point de rosée 45 ° F
Humidité 89%
Précipitations 0.00 pouce
Profondeur de la couche neigeuse Non disponible.
5:11 AM 0:40 AM
Lune gibbeuse décroissante, 67% visible
METAR PADE 250953Z AUTO 20007KT 10SM CLR 09/07 A2979 RMK AO2 SLP086 T00890072 TSNO

10-Day Weather Forecast

Almanac

Astronomie

Jul. 25, 2016 Lever Coucher
Temps réel
Crépuscule civil
Crépuscule nautique
Crépuscule astronomique
Lune
Durée de lumière visible
Longueur du jour
Tomorrow will be .
, % of the Moon is Illuminated

Extrêmes aujourd'hui

State Highs State Lows

Community

WunderPhotos

Upload Photos

1,927,289 Photos téléchargées !

WunderBlog® & News

Nearby

Qualité de l'air

  Qualité de l'air Indice de la qualité de l'air Polluant
Not available.

Épaisseur de neige

Station Depth Altitude

Activité sismique

Ville Distance Mag. Time & Date
Minimum magnitude displayed is 2.5.

Températures des eaux côtières

Lieu Température

Stations

Stations météo à proximité

Emplacement de la station Température Refroidissement éolien Point de rosée Humidité Vent Precip. Alt. Mise à jour Type
                   

Watches & Warnings

There are currently no watches in effect.